首页
METAR-TAF:

METAR-TAF

机场 :

滑鐵盧區國際機場

滑铁卢, 安大略省, 加拿大

纬度: 43-28N, 经度: 080-23W, 海拔: 317米

当前天气观测

该预报发布于48分钟前的12:00 UTC
静风
温度 0°C
湿度 100%
气压 1008 hPa
能見度: 0.2公里

METAR: CYKF 191200Z AUTO 00000KT 1/8SM FG VV002 00/00 A2976 RMK SLP089

时间: 07:48 (12:48 UTC)

预报

该预报发布于5小时和10分钟前的07:38 UTC
预报有效从19日的 08点(UTC)到 19日的 20点(UTC)
风速3节,风向多变
能見度: 0.2公里
层高于100英尺
短暂存在
从 19日的 08点(UTC)到 19日的 15点(UTC)
能見度: 3.2公里
阴天层高于600英尺
轻雾
从 19日的 1500点(UTC)
风速5节,风向东转东南
能見度: 3.2公里
阴天层高于600英尺
轻雾
短暂存在
从 19日的 15点(UTC)到 19日的 18点(UTC)
能見度: 10公里
散云层高于600英尺
阴天层高于1200英尺
从 19日的 1800点(UTC)
风速5节,风向南转西南
能見度: 10公里
阴天层高于1500英尺

TAF: CYKF 190738Z 1908/1920 VRB03KT 1/8SM FG VV001 TEMPO 1908/1915 2SM BR OVC006 FM191500 12005KT 2SM BR OVC006 TEMPO 1915/1918 P6SM NSW SCT006 OVC012 FM191800 20005KT P6SM OVC015 RMK FCST BASED ON AUTO OBS. NXT FCST BY 191400Z

超过4000个机场的气象观测和天气预报(METAR&TAF报告)。

可查询的气象台以黄色和红色小点在地图上表示。

将鼠标移到小点上方,可查看气象台名称。

然后点击查看天气观测和预报。

如需切换地图:点击带黑十字的绿色按钮放大地图;点击带横线的绿色按钮缩小地图;或者点击绿色箭头查看邻近地区的地图。


METAR-TAF: